Time;durP1;ratioP1;P1;durP2;ratioP2;P2;SDS_P1;SDS_P2;PMS_P1;PMS_P2;Temp;Humidity;BMP_temperature;BMP_pressure;BME280_temperature;BME280_humidity;BME280_pressure;Samples;Min_cycle;Max_cycle;Signal;HPM_P1;HPM_P2
2021/12/31 00:00:31;;;;;;;13.87;9.80;;;12.20;99.90;;;;;;4972113;28;20243;-63
2021/12/31 00:03:00;;;;;;;13.00;9.43;;;12.20;99.90;;;;;;4972367;28;20240;-62
2021/12/31 00:05:28;;;;;;;13.63;9.37;;;12.20;99.90;;;;;;4971336;28;20735;-62
2021/12/31 00:07:56;;;;;;;9.73;8.73;;;12.10;99.90;;;;;;4972360;28;20248;-63
2021/12/31 00:10:26;;;;;;;10.60;9.60;;;12.10;99.90;;;;;;4968877;28;20332;-64
2021/12/31 00:12:56;;;;;;;11.37;8.90;;;12.20;99.90;;;;;;4972723;28;20240;-62
2021/12/31 00:15:25;;;;;;;10.93;9.83;;;12.20;99.90;;;;;;4971796;28;20245;-63
2021/12/31 00:17:53;;;;;;;12.53;10.13;;;12.20;99.90;;;;;;4971176;28;20737;-63
2021/12/31 00:20:24;;;;;;;12.47;9.47;;;12.20;99.90;;;;;;4971846;28;20237;-62
2021/12/31 00:23:03;;;;;;;12.63;9.57;;;12.20;99.90;;;;;;4972343;28;20245;-63
2021/12/31 00:25:35;;;;;;;16.17;10.67;;;12.10;99.90;;;;;;4971855;28;20271;-62
2021/12/31 00:28:03;;;;;;;14.67;9.77;;;12.10;99.90;;;;;;4972213;28;20323;-62
2021/12/31 00:30:33;;;;;;;18.10;10.10;;;12.20;99.90;;;;;;4971751;28;20297;-62
2021/12/31 00:33:02;;;;;;;13.27;10.70;;;12.10;99.90;;;;;;4972074;28;20260;-63
2021/12/31 00:35:31;;;;;;;15.63;11.60;;;12.10;99.90;;;;;;4971405;28;20295;-63
2021/12/31 00:37:59;;;;;;;17.20;10.70;;;12.20;99.90;;;;;;4971902;28;20245;-62
2021/12/31 00:40:27;;;;;;;15.53;11.27;;;12.10;99.90;;;;;;4971536;28;20241;-63
2021/12/31 00:42:57;;;;;;;14.90;11.80;;;12.10;99.90;;;;;;4971876;28;20264;-64
2021/12/31 00:45:26;;;;;;;14.83;11.27;;;12.10;99.90;;;;;;4972056;28;20755;-63
2021/12/31 00:47:55;;;;;;;13.67;10.93;;;12.10;99.90;;;;;;4971137;28;20295;-64
2021/12/31 00:50:25;;;;;;;15.23;11.13;;;12.10;99.90;;;;;;4969831;28;20236;-63
2021/12/31 00:52:53;;;;;;;18.07;11.53;;;12.20;99.90;;;;;;4972132;28;20324;-62
2021/12/31 00:55:21;;;;;;;14.63;11.30;;;12.10;99.90;;;;;;4971576;28;20249;-63
2021/12/31 00:57:49;;;;;;;14.13;10.70;;;12.20;99.90;;;;;;4971502;28;20240;-63
2021/12/31 01:00:20;;;;;;;16.17;9.43;;;12.10;99.90;;;;;;4971711;28;20255;-63
2021/12/31 01:02:48;;;;;;;17.87;10.03;;;12.20;99.90;;;;;;4971638;28;20237;-63
2021/12/31 01:05:16;;;;;;;13.50;9.43;;;12.20;99.90;;;;;;4971634;28;20242;-62
2021/12/31 01:07:45;;;;;;;13.40;8.57;;;12.10;99.90;;;;;;4971714;28;20247;-62
2021/12/31 01:10:16;;;;;;;15.60;8.37;;;12.10;99.90;;;;;;4971428;28;20234;-63
2021/12/31 01:12:45;;;;;;;12.23;7.90;;;12.20;99.90;;;;;;4971606;28;20299;-63
2021/12/31 01:15:20;;;;;;;12.10;7.77;;;12.10;99.90;;;;;;4972164;28;20236;-62
2021/12/31 01:18:16;;;;;;;15.13;8.20;;;12.10;99.90;;;;;;4974677;28;20665;-63
2021/12/31 01:20:44;;;;;;;14.13;7.57;;;12.10;99.90;;;;;;4967593;28;22458;-62
2021/12/31 01:23:15;;;;;;;13.53;7.83;;;12.10;99.90;;;;;;4975418;28;20236;-62
2021/12/31 01:25:43;;;;;;;18.43;7.80;;;12.10;99.90;;;;;;4975008;28;20294;-63
2021/12/31 01:28:11;;;;;;;13.10;7.77;;;12.10;99.90;;;;;;4975529;28;20237;-62
2021/12/31 01:30:40;;;;;;;13.67;7.67;;;12.10;99.90;;;;;;4974780;28;20240;-62
2021/12/31 01:33:09;;;;;;;16.03;7.33;;;12.10;99.90;;;;;;4975218;28;20376;-63
2021/12/31 01:35:37;;;;;;;14.93;7.53;;;12.00;99.90;;;;;;4974777;28;20655;-63
2021/12/31 01:38:05;;;;;;;13.33;7.30;;;12.10;99.90;;;;;;4974989;28;20244;-62
2021/12/31 01:40:33;;;;;;;14.53;7.57;;;12.10;99.90;;;;;;4974639;28;20239;-62
2021/12/31 01:43:02;;;;;;;16.60;7.17;;;12.10;99.90;;;;;;4974912;28;20246;-62
2021/12/31 01:45:33;;;;;;;15.20;6.93;;;12.10;99.90;;;;;;4974600;28;20237;-62
2021/12/31 01:48:08;;;;;;;19.07;7.47;;;12.10;99.90;;;;;;4974332;28;20304;-62
2021/12/31 01:50:39;;;;;;;13.00;7.10;;;12.10;99.90;;;;;;4973290;28;20329;-63
2021/12/31 01:53:08;;;;;;;17.60;7.30;;;12.10;99.90;;;;;;4974923;28;20706;-62
2021/12/31 01:55:37;;;;;;;17.27;7.20;;;12.10;99.90;;;;;;4974211;28;20237;-62
2021/12/31 01:58:07;;;;;;;15.10;7.03;;;12.00;99.90;;;;;;4974640;28;20241;-62
2021/12/31 02:00:36;;;;;;;13.97;6.83;;;12.10;99.90;;;;;;4974474;28;20233;-63
2021/12/31 02:03:06;;;;;;;13.73;7.23;;;12.10;99.90;;;;;;4973312;28;20241;-63
2021/12/31 02:05:34;;;;;;;16.27;6.47;;;12.10;99.90;;;;;;4974299;28;20650;-63
2021/12/31 02:08:04;;;;;;;11.43;6.43;;;12.10;99.90;;;;;;4974566;28;20306;-62
2021/12/31 02:10:33;;;;;;;12.37;6.17;;;12.00;99.90;;;;;;4974078;28;20245;-62
2021/12/31 02:13:01;;;;;;;20.23;6.80;;;12.10;99.90;;;;;;4974443;28;20291;-62
2021/12/31 02:15:30;;;;;;;12.13;6.70;;;12.10;99.90;;;;;;4974060;28;20741;-63
2021/12/31 02:18:00;;;;;;;12.83;6.10;;;12.10;99.90;;;;;;4974364;28;20241;-62
2021/12/31 02:20:37;;;;;;;19.83;6.80;;;12.10;99.90;;;;;;4973091;28;20243;-62
2021/12/31 02:23:08;;;;;;;15.33;6.93;;;12.10;99.90;;;;;;4974050;28;20243;-62
2021/12/31 02:25:37;;;;;;;17.60;5.87;;;12.10;99.90;;;;;;4973823;28;20319;-62
2021/12/31 02:28:06;;;;;;;12.43;6.37;;;12.10;99.90;;;;;;4973049;28;20241;-62
2021/12/31 02:30:34;;;;;;;15.97;6.27;;;12.20;99.90;;;;;;4973867;28;20232;-62
2021/12/31 02:33:03;;;;;;;10.97;6.03;;;12.10;99.90;;;;;;4974043;28;20249;-63
2021/12/31 02:35:32;;;;;;;14.67;6.53;;;12.10;99.90;;;;;;4973651;28;20739;-63
2021/12/31 02:38:03;;;;;;;14.27;5.93;;;12.10;99.90;;;;;;4973800;28;20583;-62
2021/12/31 02:40:32;;;;;;;12.30;6.13;;;12.10;99.90;;;;;;4973716;28;20635;-63
2021/12/31 02:43:00;;;;;;;11.93;5.83;;;12.20;99.90;;;;;;4973206;28;20328;-63
2021/12/31 02:45:32;;;;;;;12.93;6.20;;;12.10;99.90;;;;;;4969520;28;20659;-62
2021/12/31 02:48:03;;;;;;;17.13;6.17;;;12.10;99.90;;;;;;4973937;28;20232;-62
2021/12/31 02:50:34;;;;;;;11.67;6.43;;;12.10;99.90;;;;;;4972624;28;20268;-62
2021/12/31 02:53:06;;;;;;;13.63;6.17;;;12.10;99.90;;;;;;4973600;28;20247;-62
2021/12/31 02:55:37;;;;;;;12.30;5.50;;;12.10;99.90;;;;;;4973142;28;20605;-62
2021/12/31 02:58:07;;;;;;;12.43;6.00;;;12.20;99.90;;;;;;4973531;28;20330;-63
2021/12/31 03:00:38;;;;;;;8.93;5.17;;;12.10;99.90;;;;;;4973186;28;20240;-63
2021/12/31 03:03:09;;;;;;;11.77;5.87;;;12.10;99.90;;;;;;4973346;28;20241;-63
2021/12/31 03:05:39;;;;;;;12.13;5.23;;;12.20;99.90;;;;;;4973047;28;20271;-63
2021/12/31 03:08:10;;;;;;;11.53;5.77;;;12.20;99.90;;;;;;4973415;28;20248;-62
2021/12/31 03:10:39;;;;;;;14.00;6.23;;;12.10;99.90;;;;;;4972977;28;20641;-63
2021/12/31 03:13:08;;;;;;;9.63;5.57;;;12.20;99.90;;;;;;4972476;28;20245;-62
2021/12/31 03:15:38;;;;;;;13.63;5.47;;;12.10;99.90;;;;;;4968840;28;20709;-62
2021/12/31 03:18:08;;;;;;;11.63;6.03;;;12.10;99.90;;;;;;4973152;28;20876;-62
2021/12/31 03:20:42;;;;;;;10.53;5.60;;;12.10;99.90;;;;;;4972892;28;20241;-63
2021/12/31 03:23:11;;;;;;;9.40;5.13;;;12.10;99.90;;;;;;4972502;28;20241;-62
2021/12/31 03:25:40;;;;;;;14.23;4.77;;;12.20;99.90;;;;;;4971090;28;20247;-62
2021/12/31 03:28:08;;;;;;;13.00;5.67;;;12.20;99.90;;;;;;4973008;28;20290;-62
2021/12/31 03:30:36;;;;;;;10.60;5.47;;;12.20;99.90;;;;;;4972525;28;20248;-63
2021/12/31 03:33:04;;;;;;;10.07;4.67;;;12.10;99.90;;;;;;4972832;28;20240;-62
2021/12/31 03:35:32;;;;;;;17.77;6.03;;;12.10;99.90;;;;;;4972526;28;20245;-63
2021/12/31 03:38:00;;;;;;;14.50;5.20;;;12.10;99.90;;;;;;4972580;28;20255;-63
2021/12/31 03:40:30;;;;;;;13.03;5.37;;;12.10;99.90;;;;;;4972435;28;20668;-62
2021/12/31 03:42:58;;;;;;;14.77;5.70;;;12.10;99.90;;;;;;4972845;28;20575;-62
2021/12/31 03:45:26;;;;;;;12.33;5.30;;;12.10;99.90;;;;;;4972489;28;20264;-64
2021/12/31 03:47:55;;;;;;;13.97;5.43;;;12.10;99.90;;;;;;4973089;28;20245;-62
2021/12/31 03:50:23;;;;;;;11.57;4.63;;;12.10;99.90;;;;;;4972652;28;20247;-62
2021/12/31 03:52:51;;;;;;;9.83;4.70;;;12.00;99.90;;;;;;4972103;28;20250;-62
2021/12/31 03:55:19;;;;;;;13.97;4.80;;;12.10;99.90;;;;;;4969475;28;20232;-62
2021/12/31 03:57:48;;;;;;;10.83;4.80;;;12.10;99.90;;;;;;4972403;28;20642;-62
2021/12/31 04:00:17;;;;;;;12.83;4.87;;;12.10;99.90;;;;;;4972268;28;20696;-62
2021/12/31 04:02:45;;;;;;;10.73;5.17;;;12.10;99.90;;;;;;4972189;28;20253;-62
2021/12/31 04:05:14;;;;;;;15.17;5.47;;;12.10;99.90;;;;;;4972300;28;20243;-62
2021/12/31 04:07:43;;;;;;;12.17;4.90;;;12.00;99.90;;;;;;4972194;28;20259;-63
2021/12/31 04:10:11;;;;;;;10.07;4.43;;;12.00;99.90;;;;;;4972182;28;20229;-62
2021/12/31 04:12:39;;;;;;;12.70;5.43;;;12.00;99.90;;;;;;4971184;28;20662;-62
2021/12/31 04:15:10;;;;;;;7.70;4.03;;;12.00;99.90;;;;;;4960093;28;20748;-62
2021/12/31 04:17:40;;;;;;;10.73;4.10;;;12.00;99.90;;;;;;4971936;28;20246;-62
2021/12/31 04:20:18;;;;;;;13.43;5.13;;;12.00;99.90;;;;;;4971995;28;20272;-62
2021/12/31 04:22:52;;;;;;;11.23;4.67;;;12.00;99.90;;;;;;4972091;28;20260;-63
2021/12/31 04:25:21;;;;;;;12.90;4.60;;;12.00;99.90;;;;;;4972105;28;20714;-62
2021/12/31 04:27:50;;;;;;;11.97;4.50;;;12.00;99.90;;;;;;4971934;28;20241;-63
2021/12/31 04:30:21;;;;;;;10.83;4.17;;;12.10;99.90;;;;;;4971999;28;20256;-62
2021/12/31 04:32:50;;;;;;;10.03;4.90;;;12.00;99.90;;;;;;4971875;28;20658;-63
2021/12/31 04:35:18;;;;;;;12.37;4.60;;;12.00;99.90;;;;;;4971774;28;20233;-62
2021/12/31 04:37:47;;;;;;;11.77;4.17;;;12.10;99.90;;;;;;4971795;28;20323;-62
2021/12/31 04:40:15;;;;;;;12.03;4.30;;;12.10;99.90;;;;;;4971763;28;20248;-63
2021/12/31 04:42:46;;;;;;;13.83;4.37;;;12.10;99.90;;;;;;4971132;28;20315;-62
2021/12/31 04:45:14;;;;;;;13.57;4.10;;;12.10;99.90;;;;;;4959737;28;20240;-62
2021/12/31 04:47:44;;;;;;;10.70;4.10;;;12.10;99.90;;;;;;4971724;28;20307;-63
2021/12/31 04:50:12;;;;;;;12.43;4.30;;;12.10;99.90;;;;;;4972197;28;20237;-62
2021/12/31 04:52:41;;;;;;;8.50;3.67;;;12.10;99.90;;;;;;4975700;28;20241;-62
2021/12/31 04:55:10;;;;;;;12.23;4.50;;;12.20;99.90;;;;;;4975660;28;20728;-62
2021/12/31 04:57:39;;;;;;;9.77;4.20;;;12.10;99.90;;;;;;4975486;28;20240;-63
2021/12/31 05:00:08;;;;;;;13.20;4.43;;;12.10;99.90;;;;;;4975540;28;20237;-62
2021/12/31 05:02:36;;;;;;;14.53;4.70;;;12.10;99.90;;;;;;4975486;28;20713;-63
2021/12/31 05:05:07;;;;;;;11.90;4.40;;;12.10;99.90;;;;;;4975686;28;20238;-62
2021/12/31 05:07:35;;;;;;;10.37;4.47;;;12.20;99.90;;;;;;4975418;28;20271;-63
2021/12/31 05:10:04;;;;;;;8.77;3.60;;;12.20;99.90;;;;;;4975445;28;20259;-63
2021/12/31 05:12:36;;;;;;;10.57;4.50;;;12.20;99.90;;;;;;4973968;28;20721;-65
2021/12/31 05:15:07;;;;;;;12.20;5.00;;;12.10;99.90;;;;;;4971744;28;20268;-62
2021/12/31 05:17:35;;;;;;;9.00;4.07;;;12.20;99.90;;;;;;4972017;28;20241;-63
2021/12/31 05:20:06;;;;;;;10.07;4.03;;;12.20;99.90;;;;;;4958619;28;20254;-62
2021/12/31 05:22:34;;;;;;;9.47;5.07;;;12.20;99.90;;;;;;4975038;28;20708;-62
2021/12/31 05:25:03;;;;;;;7.97;3.80;;;12.20;99.90;;;;;;4975367;28;20335;-62
2021/12/31 05:27:31;;;;;;;10.47;4.00;;;12.20;99.90;;;;;;4975262;28;20241;-62
2021/12/31 05:29:59;;;;;;;9.53;4.13;;;12.30;99.90;;;;;;4974962;28;20288;-62
2021/12/31 05:32:27;;;;;;;8.63;4.33;;;12.30;99.90;;;;;;4974874;28;20229;-63
2021/12/31 05:34:55;;;;;;;13.07;4.70;;;12.30;99.90;;;;;;4975048;28;20606;-63
2021/12/31 05:37:25;;;;;;;9.63;4.37;;;12.30;99.90;;;;;;4975459;28;20745;-62
2021/12/31 05:39:53;;;;;;;8.30;4.47;;;12.20;99.90;;;;;;4975058;28;20369;-63
2021/12/31 05:42:21;;;;;;;8.87;4.97;;;12.30;99.90;;;;;;4974306;28;20249;-62
2021/12/31 05:44:49;;;;;;;12.70;5.33;;;12.30;99.90;;;;;;4962665;28;20272;-62
2021/12/31 05:47:17;;;;;;;8.63;4.83;;;12.30;99.90;;;;;;4974806;28;20295;-62
2021/12/31 05:49:46;;;;;;;9.53;4.90;;;12.30;99.90;;;;;;4974317;28;20332;-63
2021/12/31 05:52:14;;;;;;;8.97;5.00;;;12.30;99.90;;;;;;4971293;28;20271;-62
2021/12/31 05:54:43;;;;;;;9.67;5.50;;;12.30;99.90;;;;;;4973950;28;20327;-63
2021/12/31 05:57:11;;;;;;;12.43;5.30;;;12.30;99.90;;;;;;4974625;28;20708;-62
2021/12/31 05:59:40;;;;;;;8.53;5.63;;;12.30;99.90;;;;;;4974522;28;20304;-62
2021/12/31 06:02:08;;;;;;;11.80;5.60;;;12.30;99.90;;;;;;4974574;28;20339;-62
2021/12/31 06:04:37;;;;;;;11.30;5.70;;;12.30;99.90;;;;;;4974064;28;20236;-62
2021/12/31 06:07:09;;;;;;;7.87;5.63;;;12.30;99.90;;;;;;4973166;28;20575;-62
2021/12/31 06:09:38;;;;;;;11.83;6.20;;;12.30;99.90;;;;;;4971270;28;20240;-62
2021/12/31 06:12:08;;;;;;;10.37;6.17;;;12.30;99.90;;;;;;4974451;28;20784;-62
2021/12/31 06:14:36;;;;;;;11.13;6.30;;;12.30;99.90;;;;;;4974317;28;20268;-63
2021/12/31 06:17:07;;;;;;;10.40;6.37;;;12.30;99.90;;;;;;4974373;28;20240;-62
2021/12/31 06:19:36;;;;;;;12.90;6.90;;;12.30;99.90;;;;;;4973860;28;20262;-62
2021/12/31 06:22:10;;;;;;;8.47;6.77;;;12.20;99.90;;;;;;4973372;28;20235;-63
2021/12/31 06:24:38;;;;;;;11.60;6.60;;;12.20;99.90;;;;;;4973903;28;20240;-62
2021/12/31 06:27:07;;;;;;;9.10;7.50;;;12.20;99.90;;;;;;4973948;28;20829;-62
2021/12/31 06:29:36;;;;;;;9.27;7.40;;;12.20;99.90;;;;;;4973831;28;20255;-63
2021/12/31 06:32:04;;;;;;;12.87;7.60;;;12.20;99.90;;;;;;4973999;28;20240;-62
2021/12/31 06:34:38;;;;;;;11.63;7.90;;;12.10;99.90;;;;;;4954789;28;20238;-63
2021/12/31 06:37:06;;;;;;;7.70;6.87;;;12.20;99.90;;;;;;4972742;28;20245;-63
2021/12/31 06:39:35;;;;;;;8.03;7.33;;;12.30;99.90;;;;;;4973687;28;20253;-63
2021/12/31 06:42:07;;;;;;;10.47;6.70;;;12.20;99.90;;;;;;4973470;28;20243;-62
2021/12/31 06:44:37;;;;;;;12.50;7.47;;;12.20;99.90;;;;;;4973587;28;20272;-63
2021/12/31 06:47:06;;;;;;;11.07;7.90;;;12.20;99.90;;;;;;4972792;28;20251;-62
2021/12/31 06:49:34;;;;;;;8.73;7.50;;;12.20;99.90;;;;;;4972851;28;20236;-62
2021/12/31 06:52:04;;;;;;;11.50;7.87;;;12.20;99.90;;;;;;4972848;28;20240;-64
2021/12/31 06:54:32;;;;;;;11.53;7.80;;;12.20;99.90;;;;;;4971466;28;20337;-62
2021/12/31 06:57:00;;;;;;;10.67;7.57;;;12.20;99.90;;;;;;4970567;28;20234;-63
2021/12/31 06:59:28;;;;;;;9.20;7.73;;;12.20;99.90;;;;;;4972783;28;20605;-63
2021/12/31 07:01:58;;;;;;;12.00;7.83;;;12.20;99.90;;;;;;4970987;28;20239;-63
2021/12/31 07:04:26;;;;;;;11.57;7.77;;;12.20;99.90;;;;;;4972819;28;20268;-63
2021/12/31 07:06:55;;;;;;;9.50;7.70;;;12.20;99.90;;;;;;4971121;28;20242;-64
2021/12/31 07:09:30;;;;;;;9.80;7.97;;;12.20;99.90;;;;;;4972871;28;20259;-64
2021/12/31 07:11:58;;;;;;;8.73;7.23;;;12.20;99.90;;;;;;4973112;28;20240;-63
2021/12/31 07:14:26;;;;;;;9.73;7.10;;;12.20;99.90;;;;;;4971945;28;20261;-63
2021/12/31 07:16:55;;;;;;;10.47;7.27;;;12.20;99.90;;;;;;4971996;28;20237;-63
2021/12/31 07:19:25;;;;;;;9.40;7.07;;;12.20;99.90;;;;;;4973132;28;20237;-63
2021/12/31 07:21:53;;;;;;;10.03;7.40;;;12.30;99.90;;;;;;4972462;28;20243;-63
2021/12/31 07:24:21;;;;;;;9.70;7.10;;;12.30;99.90;;;;;;4995789;28;20271;-63
2021/12/31 07:26:50;;;;;;;8.00;7.07;;;12.30;99.90;;;;;;4970108;28;20729;-63
2021/12/31 07:29:18;;;;;;;8.63;6.90;;;12.20;99.90;;;;;;4972483;28;20244;-63
2021/12/31 07:31:46;;;;;;;8.43;7.30;;;12.20;99.90;;;;;;4972088;28;20244;-63
2021/12/31 07:34:14;;;;;;;9.77;7.27;;;12.20;99.90;;;;;;4972468;28;20597;-63
2021/12/31 07:36:44;;;;;;;8.97;6.93;;;12.20;99.90;;;;;;4972103;28;20684;-62
2021/12/31 07:39:13;;;;;;;7.67;6.70;;;12.20;99.90;;;;;;4970235;28;20586;-62
2021/12/31 07:41:41;;;;;;;8.63;7.77;;;12.20;99.90;;;;;;4971946;28;20275;-63
2021/12/31 07:44:09;;;;;;;7.67;6.87;;;12.20;99.90;;;;;;4968872;28;20245;-62
2021/12/31 07:46:37;;;;;;;9.23;7.03;;;12.30;99.90;;;;;;4971759;28;20323;-62
2021/12/31 07:49:05;;;;;;;8.43;7.10;;;12.20;99.90;;;;;;4971836;28;20328;-63
2021/12/31 07:51:33;;;;;;;8.80;6.80;;;12.20;99.90;;;;;;4972015;28;20641;-62
2021/12/31 07:54:03;;;;;;;8.23;7.23;;;12.20;99.90;;;;;;4969946;28;20251;-63
2021/12/31 07:56:31;;;;;;;8.50;7.10;;;12.20;99.90;;;;;;4971758;28;20640;-63
2021/12/31 07:58:59;;;;;;;9.97;7.30;;;12.20;99.90;;;;;;4971211;28;20233;-63
2021/12/31 08:01:27;;;;;;;9.07;7.47;;;12.20;99.90;;;;;;4971723;28;20240;-63
2021/12/31 08:03:56;;;;;;;9.83;7.30;;;12.20;99.90;;;;;;4972442;28;20247;-63
2021/12/31 08:06:24;;;;;;;10.90;7.20;;;12.20;99.90;;;;;;4972322;28;20248;-62
2021/12/31 08:08:52;;;;;;;8.03;7.20;;;12.20;99.90;;;;;;4972550;28;20235;-62
2021/12/31 08:11:22;;;;;;;9.17;7.50;;;12.20;99.90;;;;;;4972112;28;20718;-63
2021/12/31 08:13:50;;;;;;;10.57;8.40;;;12.20;99.90;;;;;;4971173;28;20263;-62
2021/12/31 08:16:18;;;;;;;8.27;7.17;;;12.20;99.90;;;;;;4972191;28;20243;-63
2021/12/31 08:18:46;;;;;;;8.33;7.37;;;12.30;99.90;;;;;;4969202;28;20272;-62
2021/12/31 08:21:14;;;;;;;8.23;7.27;;;12.30;99.90;;;;;;4971703;28;20606;-63
2021/12/31 08:23:43;;;;;;;8.10;7.30;;;12.40;99.90;;;;;;4971919;28;20312;-62
2021/12/31 08:26:11;;;;;;;11.53;7.37;;;12.40;99.90;;;;;;4970410;28;20233;-62
2021/12/31 08:28:40;;;;;;;8.13;7.10;;;12.40;99.90;;;;;;4971074;28;20316;-62
2021/12/31 08:31:09;;;;;;;7.00;6.20;;;12.40;99.90;;;;;;4970600;28;20704;-62
2021/12/31 08:33:37;;;;;;;7.10;6.50;;;12.40;99.90;;;;;;4896742;28;20290;-64
2021/12/31 08:36:05;;;;;;;7.07;6.33;;;12.40;99.90;;;;;;1025417;28;10002067;-62
2021/12/31 08:38:33;;;;;;;9.20;6.30;;;12.50;99.90;;;;;;4969921;28;20992;-63
2021/12/31 08:41:02;;;;;;;9.60;6.17;;;12.50;99.90;;;;;;4970780;28;20249;-62
2021/12/31 08:43:30;;;;;;;7.17;5.57;;;12.50;99.90;;;;;;4970282;28;20272;-63
2021/12/31 08:45:59;;;;;;;7.20;5.43;;;12.50;99.90;;;;;;4969639;28;20247;-63
2021/12/31 08:48:27;;;;;;;6.77;5.27;;;12.50;99.90;;;;;;4971647;28;20654;-63
2021/12/31 08:50:55;;;;;;;7.20;5.30;;;12.50;99.90;;;;;;4971292;28;20232;-63
2021/12/31 08:53:23;;;;;;;7.00;5.00;;;12.50;99.90;;;;;;4971755;28;20244;-62
2021/12/31 08:55:51;;;;;;;7.73;5.00;;;12.50;99.90;;;;;;4971078;28;20233;-63
2021/12/31 08:58:20;;;;;;;11.90;5.70;;;12.60;99.90;;;;;;4971299;28;20700;-62
2021/12/31 09:00:48;;;;;;;6.97;4.70;;;12.60;99.90;;;;;;4969526;28;20249;-62
2021/12/31 09:03:17;;;;;;;6.67;4.83;;;12.60;99.90;;;;;;4971157;28;20246;-62
2021/12/31 09:05:45;;;;;;;8.70;4.93;;;12.60;99.90;;;;;;4970979;28;20707;-62
2021/12/31 09:08:14;;;;;;;6.03;4.40;;;12.60;99.90;;;;;;4971582;28;20244;-63
2021/12/31 09:10:42;;;;;;;6.30;4.40;;;12.60;99.90;;;;;;4970366;28;20239;-63
2021/12/31 09:13:10;;;;;;;5.93;4.40;;;12.70;99.90;;;;;;4970047;28;20325;-63
2021/12/31 09:15:38;;;;;;;7.57;4.30;;;12.60;99.90;;;;;;4970266;28;20247;-62
2021/12/31 09:18:07;;;;;;;5.13;4.40;;;12.60;99.90;;;;;;4971586;28;20240;-62
2021/12/31 09:20:36;;;;;;;8.67;4.60;;;12.60;99.90;;;;;;4971268;28;20271;-62
2021/12/31 09:23:04;;;;;;;7.73;4.43;;;12.60;99.90;;;;;;4970821;28;20275;-62
2021/12/31 09:25:32;;;;;;;5.83;4.00;;;12.60;99.90;;;;;;4970903;28;20241;-63
2021/12/31 09:28:00;;;;;;;5.87;4.03;;;12.60;99.90;;;;;;4971651;28;20663;-62
2021/12/31 09:30:29;;;;;;;4.93;4.10;;;12.60;99.90;;;;;;4970911;28;20249;-63
2021/12/31 09:32:57;;;;;;;9.20;4.60;;;12.60;99.90;;;;;;4971605;28;20249;-62
2021/12/31 09:35:25;;;;;;;5.77;4.20;;;12.60;99.90;;;;;;4970875;28;20245;-63
2021/12/31 09:37:54;;;;;;;6.67;4.67;;;12.60;99.90;;;;;;4974522;28;20255;-63
2021/12/31 09:40:23;;;;;;;7.07;4.77;;;12.60;99.90;;;;;;4975092;28;20273;-62
2021/12/31 09:43:03;;;;;;;5.20;4.07;;;12.60;99.90;;;;;;4974272;28;20331;-62
2021/12/31 09:45:33;;;;;;;6.13;4.30;;;12.70;99.90;;;;;;4973788;28;20236;-62
2021/12/31 09:48:07;;;;;;;7.40;4.67;;;12.70;99.90;;;;;;4974409;28;20242;-62
2021/12/31 09:50:37;;;;;;;4.87;3.87;;;12.70;99.90;;;;;;4974369;28;20264;-62
2021/12/31 09:53:07;;;;;;;6.10;3.90;;;12.80;99.90;;;;;;4974454;28;20685;-62
2021/12/31 09:55:40;;;;;;;5.83;4.17;;;12.80;99.90;;;;;;4974213;28;20272;-62
2021/12/31 09:58:10;;;;;;;6.97;3.50;;;12.90;99.90;;;;;;4974520;28;20791;-62
2021/12/31 10:00:41;;;;;;;4.90;3.67;;;12.90;99.90;;;;;;4962481;28;20741;-62
2021/12/31 10:03:12;;;;;;;4.00;3.63;;;13.00;99.90;;;;;;4974558;28;20241;-62
2021/12/31 10:05:42;;;;;;;8.43;4.23;;;13.00;99.90;;;;;;4974302;28;20242;-62
2021/12/31 10:08:19;;;;;;;5.47;3.80;;;13.00;99.90;;;;;;4974565;28;20245;-62
2021/12/31 10:11:08;;;;;;;4.30;3.50;;;12.90;99.90;;;;;;4973596;28;20292;-63
2021/12/31 10:13:39;;;;;;;4.73;3.90;;;12.90;99.90;;;;;;4970800;28;20278;-63
2021/12/31 10:16:18;;;;;;;5.33;3.60;;;12.90;99.90;;;;;;4968040;28;20261;-63
2021/12/31 10:18:47;;;;;;;5.17;3.47;;;12.90;99.90;;;;;;4972646;28;20715;-60
2021/12/31 10:21:19;;;;;;;6.00;4.03;;;12.90;99.90;;;;;;4973036;28;20368;-60
2021/12/31 10:23:49;;;;;;;7.50;3.53;;;12.90;99.90;;;;;;4965786;28;20248;-60
2021/12/31 10:26:18;;;;;;;4.43;3.93;;;12.90;99.90;;;;;;4971117;28;20237;-60
2021/12/31 10:28:54;;;;;;;6.73;3.97;;;12.90;99.90;;;;;;4973280;28;20241;-63
2021/12/31 10:31:28;;;;;;;6.00;3.47;;;13.00;99.90;;;;;;4973200;28;20324;-62
2021/12/31 10:33:57;;;;;;;5.50;4.00;;;13.00;99.90;;;;;;4947076;28;20234;-64
2021/12/31 10:36:36;;;;;;;4.26;3.16;;;13.00;99.90;;;;;;970576;28;10002726;-63
2021/12/31 10:39:19;;;;;;;4.63;3.63;;;13.00;99.90;;;;;;4968767;28;20708;-63
2021/12/31 10:41:51;;;;;;;7.67;4.00;;;13.00;99.90;;;;;;4970408;28;20315;-63
2021/12/31 10:44:20;;;;;;;5.40;3.77;;;12.90;99.90;;;;;;4972511;28;20246;-63
2021/12/31 10:46:54;;;;;;;6.33;3.43;;;12.90;99.90;;;;;;4969672;28;20241;-62
2021/12/31 10:49:22;;;;;;;5.17;4.00;;;12.90;99.90;;;;;;4969527;28;20737;-63
2021/12/31 10:51:51;;;;;;;5.67;3.73;;;12.90;99.90;;;;;;4973102;28;20579;-62
2021/12/31 10:54:31;;;;;;;5.13;3.63;;;12.90;99.90;;;;;;4972891;28;20241;-63
2021/12/31 10:57:01;;;;;;;3.80;3.50;;;12.80;99.90;;;;;;4972012;28;20662;-63
2021/12/31 10:59:36;;;;;;;4.70;3.30;;;12.80;99.90;;;;;;4971566;28;20233;-63
2021/12/31 11:02:06;;;;;;;5.07;3.90;;;12.80;99.90;;;;;;4973294;28;20270;-63
2021/12/31 11:04:35;;;;;;;6.37;3.53;;;12.80;99.90;;;;;;4965279;28;20660;-62
2021/12/31 11:07:04;;;;;;;3.83;3.27;;;12.80;99.90;;;;;;4969853;28;20238;-63
2021/12/31 11:09:35;;;;;;;6.77;3.60;;;12.90;99.90;;;;;;4970213;28;20579;-62
2021/12/31 11:12:04;;;;;;;6.47;3.80;;;12.90;99.90;;;;;;4971438;28;20646;-63
2021/12/31 11:14:33;;;;;;;6.30;4.00;;;12.90;99.90;;;;;;4972668;28;20261;-63
2021/12/31 11:17:01;;;;;;;5.00;4.00;;;12.90;99.90;;;;;;4972726;28;20284;-63
2021/12/31 11:19:30;;;;;;;5.90;4.17;;;12.90;99.90;;;;;;4969705;28;20280;-63
2021/12/31 11:21:59;;;;;;;4.07;3.67;;;12.90;99.90;;;;;;4972798;28;20255;-63
2021/12/31 11:24:30;;;;;;;8.00;4.40;;;12.90;99.90;;;;;;4972595;28;20340;-63
2021/12/31 11:27:00;;;;;;;5.40;4.50;;;12.90;99.90;;;;;;4972341;28;20240;-63
2021/12/31 11:29:37;;;;;;;6.37;3.57;;;12.90;99.90;;;;;;4975956;28;20732;-63
2021/12/31 11:32:07;;;;;;;6.60;4.30;;;12.90;99.90;;;;;;4971813;28;20292;-63
2021/12/31 11:34:37;;;;;;;4.93;4.43;;;12.90;99.90;;;;;;4972192;28;20240;-63
2021/12/31 11:37:05;;;;;;;8.13;4.30;;;12.80;99.90;;;;;;4971371;28;20283;-63
2021/12/31 11:39:36;;;;;;;6.60;4.40;;;12.70;99.90;;;;;;4971487;28;20237;-64
2021/12/31 11:42:07;;;;;;;5.77;4.50;;;12.60;99.90;;;;;;4973140;28;20248;-63
2021/12/31 11:44:38;;;;;;;5.97;5.33;;;12.60;99.90;;;;;;4972477;28;20241;-63
2021/12/31 11:47:16;;;;;;;5.23;4.53;;;12.60;99.90;;;;;;4972553;28;20269;-63
2021/12/31 11:49:46;;;;;;;5.60;4.83;;;12.50;99.90;;;;;;4962061;28;20300;-64
2021/12/31 11:52:20;;;;;;;6.37;4.90;;;12.50;99.90;;;;;;4970473;28;20281;-63
2021/12/31 11:55:18;;;;;;;6.30;5.13;;;12.50;99.90;;;;;;4970628;28;20303;-65
2021/12/31 11:57:52;;;;;;;7.03;5.47;;;12.50;99.90;;;;;;4971960;28;20241;-63
2021/12/31 12:00:28;;;;;;;5.90;5.30;;;12.50;99.90;;;;;;4970570;28;20245;-63
2021/12/31 12:02:56;;;;;;;7.67;5.73;;;12.50;99.90;;;;;;4971946;28;20649;-63
2021/12/31 12:05:41;;;;;;;6.50;5.50;;;12.50;99.90;;;;;;4972661;28;20247;-63
2021/12/31 12:08:25;;;;;;;8.17;5.67;;;12.50;99.90;;;;;;4972263;28;20243;-63
2021/12/31 12:10:53;;;;;;;7.90;5.73;;;12.40;99.90;;;;;;4972254;28;20249;-62
2021/12/31 12:13:25;;;;;;;6.60;5.70;;;12.40;99.90;;;;;;4972412;28;20653;-63
2021/12/31 12:15:54;;;;;;;7.90;5.60;;;12.40;99.90;;;;;;4972301;28;20293;-63
2021/12/31 12:18:51;;;;;;;6.43;5.73;;;12.40;99.90;;;;;;4971903;28;20693;-63
2021/12/31 12:21:39;;;;;;;6.87;5.17;;;12.40;99.90;;;;;;4967602;28;20578;-63
2021/12/31 12:24:08;;;;;;;6.80;5.80;;;12.40;99.90;;;;;;4976929;28;20652;-63
2021/12/31 12:26:36;;;;;;;6.47;5.40;;;12.30;99.90;;;;;;4971881;28;20235;-63
2021/12/31 12:29:06;;;;;;;6.73;5.50;;;12.30;99.90;;;;;;4971921;28;20267;-63
2021/12/31 12:31:39;;;;;;;9.67;6.27;;;12.30;99.90;;;;;;4965682;28;20237;-63
2021/12/31 12:34:14;;;;;;;5.73;4.90;;;12.30;99.90;;;;;;3744365;28;10021795;-63
2021/12/31 12:36:43;;;;;;;7.87;5.97;;;12.30;99.90;;;;;;2396091;28;10002005;-63
2021/12/31 12:39:12;;;;;;;8.47;6.03;;;12.30;99.90;;;;;;4962776;28;20489;-63
2021/12/31 12:41:42;;;;;;;7.33;6.60;;;12.30;99.90;;;;;;4963752;28;20646;-63
2021/12/31 12:44:11;;;;;;;7.27;6.07;;;12.30;99.90;;;;;;4961863;28;20232;-63
2021/12/31 12:46:55;;;;;;;9.20;6.10;;;12.30;99.90;;;;;;4958742;28;20392;-63
2021/12/31 12:49:24;;;;;;;9.90;6.77;;;12.20;99.90;;;;;;4957917;28;20376;-63
2021/12/31 12:51:52;;;;;;;7.03;6.20;;;12.20;99.90;;;;;;4959626;28;20256;-63
2021/12/31 12:54:23;;;;;;;7.03;6.07;;;12.20;99.90;;;;;;4959166;28;20261;-63